Cincinnati, Ohio
Traffic Map
Current Weather Conditions
Cincinnati, Ohio
Scattered Clouds Haze
Scattered Clouds
70°
Feels Like: 70°
Wind Chill: 70° Ceiling: Unl
Heat Index: 70° Visibility: 4mi
Dew Point: 70° Wind: 0mph
Humidity: 100% Direction: ° ()
Pressure: 29.98in Gusts: 0mph
Raw Report DataKLUK 180653Z AUTO 00000KT 4SM R21L/5500VP6000FT BR SCT100 21/21 A2998 RMK AO2 SLP147 T02110211
Traffic Incident Summary
Active as of:
Severity:
Category:
InformationThere was an issue retrieving the traffic information for this location. Please try a different location or try again shortly.
Advertisements